createdAt,value
2017-07-12T00:00:20.533Z,0
2017-07-12T00:01:01.132Z,0
2017-07-12T00:01:41.700Z,0
2017-07-12T00:02:22.262Z,0
2017-07-12T00:03:02.851Z,0
2017-07-12T00:03:43.420Z,0
2017-07-12T00:04:23.971Z,0
2017-07-12T00:05:04.554Z,0
2017-07-12T00:05:45.135Z,0
2017-07-12T00:06:25.703Z,0
2017-07-12T00:07:06.267Z,0
2017-07-12T00:07:46.847Z,0
2017-07-12T00:08:27.423Z,0
2017-07-12T00:09:08.032Z,0
2017-07-12T00:09:48.647Z,0
2017-07-12T00:10:29.219Z,0
2017-07-12T00:11:09.821Z,0
2017-07-12T00:11:50.408Z,0
2017-07-12T00:12:30.977Z,0
2017-07-12T00:13:11.546Z,0
2017-07-12T00:13:52.119Z,0
2017-07-12T00:14:32.736Z,0
2017-07-12T00:15:13.343Z,0
2017-07-12T00:15:53.926Z,0
2017-07-12T00:16:34.522Z,0
2017-07-12T00:17:15.054Z,0
2017-07-12T00:17:55.681Z,0
2017-07-12T00:18:36.255Z,0
2017-07-12T00:19:16.818Z,0
2017-07-12T00:19:57.385Z,0
2017-07-12T00:20:37.954Z,0
2017-07-12T00:21:18.531Z,0
2017-07-12T00:21:59.111Z,0
2017-07-12T00:22:39.701Z,0
2017-07-12T00:23:20.294Z,0
2017-07-12T00:24:00.868Z,0
2017-07-12T00:24:41.450Z,0
2017-07-12T00:25:22.055Z,0
2017-07-12T00:26:02.618Z,0
2017-07-12T00:26:43.178Z,0
2017-07-12T00:27:23.769Z,0
2017-07-12T00:28:04.350Z,0
2017-07-12T00:28:44.951Z,0
2017-07-12T00:29:25.518Z,0
2017-07-12T00:30:06.100Z,0
2017-07-12T00:30:46.699Z,0
2017-07-12T00:31:27.275Z,0
2017-07-12T00:32:07.881Z,0
2017-07-12T00:32:48.451Z,0
2017-07-12T00:33:29.026Z,0
2017-07-12T00:34:09.613Z,0
2017-07-12T00:34:50.192Z,0
2017-07-12T00:35:30.781Z,0
2017-07-12T00:36:11.360Z,0
2017-07-12T00:36:51.948Z,0
2017-07-12T00:37:32.535Z,0
2017-07-12T00:38:13.116Z,0
2017-07-12T00:38:53.710Z,0
2017-07-12T00:39:34.343Z,0
2017-07-12T00:40:14.926Z,0
2017-07-12T00:40:55.488Z,0
2017-07-12T00:41:36.065Z,0
2017-07-12T00:42:16.656Z,0
2017-07-12T00:42:57.268Z,0
2017-07-12T00:43:37.898Z,0
2017-07-12T00:44:18.448Z,0
2017-07-12T00:44:59.039Z,0
2017-07-12T00:45:39.633Z,0
2017-07-12T00:46:20.192Z,0
2017-07-12T00:47:00.774Z,0
2017-07-12T00:47:41.350Z,0
2017-07-12T00:48:21.972Z,0
2017-07-12T00:49:02.564Z,0
2017-07-12T00:49:43.140Z,0
2017-07-12T00:50:23.714Z,0
2017-07-12T00:51:04.310Z,0
2017-07-12T00:51:44.882Z,0
2017-07-12T00:52:25.463Z,0
2017-07-12T00:53:06.043Z,0
2017-07-12T00:53:46.677Z,0
2017-07-12T00:54:27.261Z,0
2017-07-12T00:55:07.828Z,0
2017-07-12T00:55:48.407Z,0
2017-07-12T00:56:29.009Z,0
2017-07-12T00:57:09.604Z,0
2017-07-12T00:57:50.309Z,0
2017-07-12T00:58:30.894Z,0
2017-07-12T00:59:11.470Z,0
2017-07-12T00:59:52.062Z,0
2017-07-12T01:00:32.636Z,0
2017-07-12T01:01:13.199Z,0
2017-07-12T01:01:53.912Z,0
2017-07-12T01:02:34.472Z,0
2017-07-12T01:03:15.041Z,0
2017-07-12T01:03:55.607Z,0
2017-07-12T01:04:36.183Z,0
2017-07-12T01:05:16.787Z,0
2017-07-12T01:05:57.345Z,0
2017-07-12T01:06:37.919Z,0
2017-07-12T01:07:18.488Z,0
2017-07-12T01:07:59.050Z,0
2017-07-12T01:08:39.630Z,0
2017-07-12T01:09:20.203Z,0
2017-07-12T01:10:00.783Z,0
2017-07-12T01:10:41.363Z,0
2017-07-12T01:11:21.941Z,0
2017-07-12T01:12:02.518Z,0
2017-07-12T01:12:43.118Z,0
2017-07-12T01:13:23.702Z,0
2017-07-12T01:14:04.374Z,0
2017-07-12T01:14:45.043Z,0
2017-07-12T01:15:25.672Z,0
2017-07-12T01:16:06.249Z,0
2017-07-12T01:16:46.850Z,0
2017-07-12T01:17:27.434Z,0
2017-07-12T01:18:08.006Z,0
2017-07-12T01:18:48.618Z,0
2017-07-12T01:19:29.195Z,0
2017-07-12T01:20:09.775Z,0
2017-07-12T01:20:50.380Z,0
2017-07-12T01:21:30.966Z,0
2017-07-12T01:22:11.575Z,0
2017-07-12T01:22:52.141Z,0
2017-07-12T01:23:32.744Z,0
2017-07-12T01:24:13.296Z,0
2017-07-12T01:24:53.872Z,0
2017-07-12T01:25:34.458Z,0
2017-07-12T01:26:15.050Z,0
2017-07-12T01:26:55.632Z,0
2017-07-12T01:27:36.213Z,0
2017-07-12T01:28:16.797Z,0
2017-07-12T01:28:57.453Z,0
2017-07-12T01:29:37.966Z,0
2017-07-12T01:30:18.552Z,0
2017-07-12T01:30:59.115Z,0
2017-07-12T01:31:39.725Z,0
2017-07-12T01:32:20.345Z,0
2017-07-12T01:33:00.907Z,0
2017-07-12T01:33:41.486Z,0
2017-07-12T01:34:22.047Z,0
2017-07-12T01:35:02.622Z,0
2017-07-12T01:35:43.197Z,0
2017-07-12T01:36:23.764Z,0
2017-07-12T01:37:04.339Z,0
2017-07-12T01:37:45.750Z,0
2017-07-12T01:38:26.311Z,0
2017-07-12T01:39:06.942Z,0
2017-07-12T01:39:47.509Z,0
2017-07-12T01:40:28.064Z,0
2017-07-12T01:41:08.653Z,0
2017-07-12T01:41:49.220Z,0
2017-07-12T01:42:29.834Z,0
2017-07-12T01:43:10.412Z,0
2017-07-12T01:43:50.991Z,0
2017-07-12T01:44:31.568Z,0
2017-07-12T01:45:12.137Z,0
2017-07-12T01:45:52.704Z,0
2017-07-12T01:46:33.276Z,0
2017-07-12T01:47:13.833Z,0
2017-07-12T01:47:54.428Z,0
2017-07-12T01:48:35.002Z,0
2017-07-12T01:49:15.584Z,0
2017-07-12T01:49:56.150Z,0
2017-07-12T01:50:36.729Z,0
2017-07-12T01:51:17.310Z,0
2017-07-12T01:51:57.880Z,0
2017-07-12T01:52:38.461Z,0
2017-07-12T01:53:19.039Z,0
2017-07-12T01:53:59.612Z,0
2017-07-12T01:54:40.199Z,0
2017-07-12T01:55:20.784Z,0
2017-07-12T01:56:01.351Z,0
2017-07-12T01:56:41.916Z,0
2017-07-12T01:57:22.493Z,0
2017-07-12T01:58:03.065Z,0
2017-07-12T01:58:43.625Z,0
2017-07-12T01:59:24.204Z,0
2017-07-12T02:00:04.771Z,0
2017-07-12T02:00:45.367Z,0
2017-07-12T02:01:25.940Z,0
2017-07-12T02:02:06.528Z,0
2017-07-12T02:02:47.098Z,0
2017-07-12T02:03:27.673Z,0
2017-07-12T02:04:08.271Z,0
2017-07-12T02:04:48.850Z,0
2017-07-12T02:05:29.418Z,0
2017-07-12T02:06:09.984Z,0
2017-07-12T02:06:50.550Z,0
2017-07-12T02:07:31.171Z,0
2017-07-12T02:08:11.738Z,0
2017-07-12T02:08:52.320Z,0
2017-07-12T02:09:32.884Z,0
2017-07-12T02:10:13.475Z,0
2017-07-12T02:10:54.067Z,0
2017-07-12T02:11:34.639Z,0
2017-07-12T02:12:15.207Z,0
2017-07-12T02:12:55.796Z,0
2017-07-12T02:13:36.379Z,0
2017-07-12T02:14:16.954Z,0
2017-07-12T02:14:57.560Z,0
2017-07-12T02:15:38.126Z,0
2017-07-12T02:16:18.711Z,0
2017-07-12T02:16:59.290Z,0
2017-07-12T02:17:39.865Z,0
2017-07-12T02:18:20.460Z,0
2017-07-12T02:19:01.036Z,0
2017-07-12T02:19:41.598Z,0
2017-07-12T02:20:22.176Z,0
2017-07-12T02:21:02.787Z,4
2017-07-12T02:21:43.383Z,4
2017-07-12T02:22:23.938Z,4
2017-07-12T02:23:04.514Z,4
2017-07-12T02:23:45.108Z,4
2017-07-12T02:24:25.701Z,4
2017-07-12T02:25:06.262Z,0
2017-07-12T02:25:46.834Z,4
2017-07-12T02:26:27.414Z,4
2017-07-12T02:27:07.999Z,4
2017-07-12T02:27:48.579Z,4
2017-07-12T02:28:29.154Z,4
2017-07-12T02:29:09.763Z,8
2017-07-12T02:29:50.353Z,4
2017-07-12T02:30:30.936Z,4
2017-07-12T02:31:11.519Z,8
2017-07-12T02:31:52.084Z,8
2017-07-12T02:32:32.657Z,4
2017-07-12T02:33:13.269Z,8
2017-07-12T02:33:53.841Z,8
2017-07-12T02:34:34.440Z,8
2017-07-12T02:35:15.004Z,12
2017-07-12T02:35:55.597Z,8
2017-07-12T02:36:36.188Z,12
2017-07-12T02:37:16.770Z,12
2017-07-12T02:37:57.351Z,12
2017-07-12T02:38:37.926Z,16
2017-07-12T02:39:18.547Z,12
2017-07-12T02:39:59.110Z,20
2017-07-12T02:40:39.687Z,20
2017-07-12T02:41:20.271Z,16
2017-07-12T02:42:00.849Z,20
2017-07-12T02:42:41.429Z,20
2017-07-12T02:43:21.998Z,24
2017-07-12T02:44:02.578Z,24
2017-07-12T02:44:43.156Z,24
2017-07-12T02:45:23.732Z,28
2017-07-12T02:46:04.301Z,28
2017-07-12T02:46:44.870Z,32
2017-07-12T02:47:25.447Z,32
2017-07-12T02:48:06.094Z,36
2017-07-12T02:48:46.681Z,36
2017-07-12T02:49:27.265Z,40
2017-07-12T02:50:07.829Z,44
2017-07-12T02:50:48.397Z,48
2017-07-12T02:51:28.965Z,52
2017-07-12T02:52:09.555Z,52
2017-07-12T02:52:50.159Z,56
2017-07-12T02:53:30.730Z,60
2017-07-12T02:54:11.303Z,64
2017-07-12T02:54:51.901Z,68
2017-07-12T02:55:32.506Z,72
2017-07-12T02:56:13.068Z,72
2017-07-12T02:56:53.647Z,80
2017-07-12T02:57:34.212Z,84
2017-07-12T02:58:14.805Z,88
2017-07-12T02:58:55.371Z,96
2017-07-12T02:59:35.953Z,96
2017-07-12T03:00:16.570Z,104
2017-07-12T03:00:57.138Z,112
2017-07-12T03:01:37.706Z,112
2017-07-12T03:02:18.310Z,120
2017-07-12T03:02:58.881Z,128
2017-07-12T03:03:39.455Z,132
2017-07-12T03:04:20.028Z,144
2017-07-12T03:05:00.592Z,148
2017-07-12T03:05:41.201Z,156
2017-07-12T03:06:21.774Z,164
2017-07-12T03:07:02.357Z,168
2017-07-12T03:07:42.936Z,180
2017-07-12T03:08:23.515Z,188
2017-07-12T03:09:04.079Z,196
2017-07-12T03:09:44.697Z,204
2017-07-12T03:10:25.305Z,212
2017-07-12T03:11:05.879Z,224
2017-07-12T03:11:47.000Z,232
2017-07-12T03:12:27.574Z,244
2017-07-12T03:13:08.161Z,252
2017-07-12T03:13:48.724Z,260
2017-07-12T03:14:29.292Z,268
2017-07-12T03:15:09.862Z,276
2017-07-12T03:15:50.494Z,288
2017-07-12T03:16:31.052Z,296
2017-07-12T03:17:11.646Z,304
2017-07-12T03:17:52.225Z,312
2017-07-12T03:18:32.810Z,316
2017-07-12T03:19:13.389Z,324
2017-07-12T03:19:53.953Z,332
2017-07-12T03:20:34.561Z,344
2017-07-12T03:21:15.141Z,352
2017-07-12T03:21:55.704Z,364
2017-07-12T03:22:36.307Z,376
2017-07-12T03:23:16.876Z,392
2017-07-12T03:23:57.454Z,396
2017-07-12T03:24:38.031Z,408
2017-07-12T03:25:18.628Z,416
2017-07-12T03:25:59.222Z,424
2017-07-12T03:26:39.855Z,428
2017-07-12T03:27:20.447Z,436
2017-07-12T03:28:01.020Z,444
2017-07-12T03:28:41.633Z,448
2017-07-12T03:29:22.211Z,464
2017-07-12T03:30:02.767Z,476
2017-07-12T03:30:43.337Z,488
2017-07-12T03:31:23.967Z,500
2017-07-12T03:32:04.535Z,504
2017-07-12T03:32:45.136Z,512
2017-07-12T03:33:25.708Z,516
2017-07-12T03:34:06.299Z,520
2017-07-12T03:34:46.912Z,516
2017-07-12T03:35:27.506Z,520
2017-07-12T03:36:08.068Z,520
2017-07-12T03:36:48.669Z,532
2017-07-12T03:37:29.249Z,540
2017-07-12T03:38:09.844Z,552
2017-07-12T03:38:50.412Z,564
2017-07-12T03:39:31.019Z,580
2017-07-12T03:40:11.610Z,596
2017-07-12T03:40:52.197Z,608
2017-07-12T03:41:32.816Z,624
2017-07-12T03:42:13.386Z,648
2017-07-12T03:42:53.950Z,680
2017-07-12T03:43:34.546Z,724
2017-07-12T03:44:15.122Z,764
2017-07-12T03:44:55.719Z,796
2017-07-12T03:45:36.298Z,824
2017-07-12T03:46:16.868Z,856
2017-07-12T03:46:57.430Z,880
2017-07-12T03:47:38.003Z,916
2017-07-12T03:48:18.600Z,968
2017-07-12T03:48:59.206Z,1020
2017-07-12T03:49:39.796Z,1060
2017-07-12T03:50:20.366Z,1096
2017-07-12T03:51:00.944Z,1120
2017-07-12T03:51:41.535Z,1144
2017-07-12T03:52:22.097Z,1168
2017-07-12T03:53:02.672Z,1188
2017-07-12T03:53:43.232Z,1208
2017-07-12T03:54:23.892Z,1232
2017-07-12T03:55:04.472Z,1260
2017-07-12T03:55:45.050Z,1288
2017-07-12T03:56:25.642Z,1312
2017-07-12T03:57:06.224Z,1336
2017-07-12T03:57:46.819Z,1360
2017-07-12T03:58:27.389Z,1384
2017-07-12T03:59:07.991Z,1412
2017-07-12T03:59:48.599Z,1440
2017-07-12T04:00:29.166Z,1468
2017-07-12T04:01:09.765Z,1496
2017-07-12T04:01:50.340Z,1520
2017-07-12T04:02:30.914Z,1544
2017-07-12T04:03:11.501Z,1568
2017-07-12T04:03:52.073Z,1588
2017-07-12T04:04:32.637Z,1600
2017-07-12T04:05:13.217Z,1616
2017-07-12T04:05:53.814Z,1628
2017-07-12T04:06:34.394Z,1644
2017-07-12T04:07:14.960Z,1660
2017-07-12T04:07:55.539Z,1684
2017-07-12T04:08:36.097Z,1716
2017-07-12T04:09:16.678Z,1752
2017-07-12T04:09:57.257Z,1788
2017-07-12T04:10:37.822Z,1820
2017-07-12T04:11:18.399Z,1856
2017-07-12T04:11:59.014Z,1892
2017-07-12T04:12:39.572Z,1924
2017-07-12T04:13:20.137Z,1960
2017-07-12T04:14:00.750Z,1992
2017-07-12T04:14:41.324Z,2016
2017-07-12T04:15:21.921Z,2044
2017-07-12T04:16:02.493Z,2064
2017-07-12T04:16:43.062Z,2084
2017-07-12T04:17:23.628Z,2108
2017-07-12T04:18:04.197Z,2132
2017-07-12T04:18:44.763Z,2152
2017-07-12T04:19:25.324Z,2180
2017-07-12T04:20:05.909Z,2200
2017-07-12T04:20:46.479Z,2240
2017-07-12T04:21:27.050Z,2284
2017-07-12T04:22:07.623Z,2324
2017-07-12T04:22:48.187Z,2348
2017-07-12T04:23:28.763Z,2368
2017-07-12T04:24:09.327Z,2396
2017-07-12T04:24:49.897Z,2432
2017-07-12T04:25:30.473Z,2476
2017-07-12T04:26:11.043Z,2540
2017-07-12T04:26:51.642Z,2624
2017-07-12T04:27:32.223Z,2748
2017-07-12T04:28:12.779Z,2932
2017-07-12T04:28:53.368Z,3152
2017-07-12T04:29:33.995Z,3312
2017-07-12T04:30:14.575Z,3464
2017-07-12T04:30:55.135Z,3644
2017-07-12T04:31:35.692Z,3832
2017-07-12T04:32:16.285Z,4008
2017-07-12T04:32:56.854Z,4164
2017-07-12T04:33:37.566Z,4324
2017-07-12T04:34:18.137Z,4488
2017-07-12T04:34:58.702Z,4628
2017-07-12T04:35:39.287Z,4704
2017-07-12T04:36:19.853Z,4760
2017-07-12T04:37:00.466Z,4788
2017-07-12T04:37:41.094Z,4804
2017-07-12T04:38:21.701Z,4752
2017-07-12T04:39:02.274Z,4676
2017-07-12T04:39:42.869Z,4596
2017-07-12T04:40:23.452Z,4544
2017-07-12T04:41:04.031Z,4596
2017-07-12T04:41:44.674Z,4700
2017-07-12T04:42:25.232Z,4912
2017-07-12T04:43:05.794Z,5164
2017-07-12T04:43:46.373Z,5348
2017-07-12T04:44:26.968Z,5412
2017-07-12T04:45:07.536Z,5432
2017-07-12T04:45:48.112Z,5440
2017-07-12T04:46:28.683Z,5472
2017-07-12T04:47:09.256Z,5484
2017-07-12T04:47:49.838Z,5496
2017-07-12T04:48:30.419Z,5532
2017-07-12T04:49:11.020Z,5580
2017-07-12T04:49:51.631Z,5548
2017-07-12T04:50:32.216Z,5544
2017-07-12T04:51:12.797Z,5708
2017-07-12T04:51:53.366Z,5688
2017-07-12T04:52:33.933Z,5496
2017-07-12T04:53:14.490Z,5480
2017-07-12T04:53:55.059Z,5340
2017-07-12T04:54:35.644Z,5188
2017-07-12T04:55:16.224Z,5092
2017-07-12T04:55:56.829Z,4988
2017-07-12T04:56:37.394Z,4852
2017-07-12T04:57:17.963Z,4720
2017-07-12T04:57:58.544Z,4600
2017-07-12T04:58:39.106Z,4512
2017-07-12T04:59:19.761Z,4488
2017-07-12T05:00:00.318Z,4524
2017-07-12T05:00:40.905Z,4600
2017-07-12T05:01:21.481Z,4684
2017-07-12T05:02:02.053Z,4768
2017-07-12T05:02:42.615Z,4816
2017-07-12T05:03:23.198Z,4800
2017-07-12T05:04:03.778Z,4736
2017-07-12T05:04:44.367Z,4664
2017-07-12T05:05:24.952Z,4592
2017-07-12T05:06:05.542Z,4528
2017-07-12T05:06:46.139Z,4468
2017-07-12T05:07:26.722Z,4448
2017-07-12T05:08:07.323Z,4448
2017-07-12T05:08:47.893Z,4420
2017-07-12T05:09:28.498Z,4368
2017-07-12T05:10:09.052Z,4296
2017-07-12T05:10:49.630Z,4248
2017-07-12T05:11:30.229Z,4172
2017-07-12T05:12:10.825Z,4084
2017-07-12T05:12:51.392Z,4040
2017-07-12T05:13:32.031Z,4028
2017-07-12T05:14:12.618Z,4076
2017-07-12T05:14:53.207Z,4140
2017-07-12T05:15:33.777Z,4264
2017-07-12T05:16:14.333Z,4392
2017-07-12T05:16:54.910Z,4564
2017-07-12T05:17:35.497Z,4740
2017-07-12T05:18:16.072Z,4880
2017-07-12T05:18:56.655Z,5040
2017-07-12T05:19:37.228Z,5184
2017-07-12T05:20:17.801Z,5304
2017-07-12T05:20:58.478Z,5420
2017-07-12T05:21:39.178Z,5548
2017-07-12T05:22:19.750Z,5616
2017-07-12T05:23:00.309Z,5680
2017-07-12T05:23:40.877Z,5820
2017-07-12T05:24:21.474Z,5884
2017-07-12T05:25:02.063Z,5968
2017-07-12T05:25:42.621Z,6200
2017-07-12T05:26:23.190Z,6472
2017-07-12T05:27:03.782Z,6964
2017-07-12T05:27:44.366Z,7612
2017-07-12T05:28:24.960Z,7672
2017-07-12T05:29:05.550Z,7720
2017-07-12T05:29:46.126Z,8360
2017-07-12T05:30:26.695Z,8452
2017-07-12T05:31:07.340Z,8936
2017-07-12T05:31:47.875Z,8864
2017-07-12T05:32:28.433Z,8828
2017-07-12T05:33:09.015Z,9008
2017-07-12T05:33:49.610Z,9464
2017-07-12T05:34:30.181Z,10028
2017-07-12T05:35:10.755Z,25376
2017-07-12T05:35:51.369Z,16928
2017-07-12T05:36:31.941Z,10344
2017-07-12T05:37:12.578Z,10968
2017-07-12T05:37:53.142Z,9600
2017-07-12T05:38:33.725Z,10600
2017-07-12T05:39:14.299Z,12388
2017-07-12T05:39:54.897Z,13516
2017-07-12T05:40:35.467Z,17632
2017-07-12T05:41:16.038Z,14192
2017-07-12T05:41:56.610Z,15432
2017-07-12T05:42:37.198Z,19392
2017-07-12T05:43:17.843Z,22848
2017-07-12T05:43:58.386Z,35040
2017-07-12T05:44:38.970Z,42016
2017-07-12T05:45:19.543Z,63072
2017-07-12T05:46:00.116Z,50592
2017-07-12T05:46:40.665Z,72832
2017-07-12T05:47:21.280Z,70240
2017-07-12T05:48:01.848Z,68032
2017-07-12T05:48:42.428Z,77024
2017-07-12T05:49:23.038Z,67040
2017-07-12T05:50:03.615Z,70976
2017-07-12T05:50:44.179Z,77184
2017-07-12T05:51:24.771Z,55200
2017-07-12T05:52:05.341Z,61568
2017-07-12T05:52:45.926Z,33024
2017-07-12T05:53:26.500Z,42304
2017-07-12T05:54:07.108Z,42848
2017-07-12T05:54:47.691Z,42912
2017-07-12T05:55:28.330Z,31808
2017-07-12T05:56:08.909Z,20480
2017-07-12T05:56:49.495Z,18656
2017-07-12T05:57:30.087Z,17024
2017-07-12T05:58:10.653Z,19008
2017-07-12T05:58:51.236Z,13700
2017-07-12T05:59:31.807Z,14784
2017-07-12T06:00:12.523Z,16320
2017-07-12T06:00:53.097Z,15352
2017-07-12T06:01:33.710Z,14984
2017-07-12T06:02:14.291Z,14892
2017-07-12T06:02:54.819Z,31232
2017-07-12T06:03:35.392Z,20320
2017-07-12T06:04:15.988Z,15712
2017-07-12T06:04:56.550Z,12092
2017-07-12T06:05:37.136Z,7344
2017-07-12T06:06:17.694Z,5976
2017-07-12T06:06:58.303Z,5108
2017-07-12T06:07:38.883Z,4448
2017-07-12T06:08:19.470Z,4040
2017-07-12T06:09:00.069Z,3780
2017-07-12T06:09:40.654Z,3592
2017-07-12T06:10:21.262Z,3460
2017-07-12T06:11:01.892Z,3348
2017-07-12T06:11:42.400Z,3252
2017-07-12T06:12:22.973Z,3176
2017-07-12T06:13:03.550Z,3128
2017-07-12T06:13:44.120Z,3080
2017-07-12T06:14:24.694Z,3016
2017-07-12T06:15:05.266Z,2948
2017-07-12T06:15:45.854Z,2864
2017-07-12T06:16:26.461Z,2776
2017-07-12T06:17:07.066Z,2696
2017-07-12T06:17:47.654Z,2628
2017-07-12T06:18:28.246Z,2556
2017-07-12T06:19:08.824Z,2484
2017-07-12T06:19:49.403Z,2444
2017-07-12T06:20:29.968Z,2420
2017-07-12T06:21:10.546Z,2428
2017-07-12T06:21:51.140Z,2464
2017-07-12T06:22:31.707Z,2520
2017-07-12T06:23:12.293Z,2584
2017-07-12T06:23:52.870Z,2652
2017-07-12T06:24:33.457Z,2736
2017-07-12T06:25:14.032Z,2812
2017-07-12T06:25:54.619Z,2876
2017-07-12T06:26:35.205Z,2956
2017-07-12T06:27:15.781Z,3072
2017-07-12T06:27:56.394Z,3204
2017-07-12T06:28:36.970Z,3348
2017-07-12T06:29:17.545Z,3516
2017-07-12T06:29:58.103Z,3636
2017-07-12T06:30:38.682Z,3704
2017-07-12T06:31:19.264Z,3776
2017-07-12T06:31:59.841Z,3792
2017-07-12T06:32:40.428Z,3784
2017-07-12T06:33:21.000Z,3792
2017-07-12T06:34:01.573Z,3800
2017-07-12T06:34:42.142Z,3884
2017-07-12T06:35:22.713Z,3928
2017-07-12T06:36:03.324Z,3996
2017-07-12T06:36:43.891Z,4104
2017-07-12T06:37:24.467Z,4240
2017-07-12T06:38:05.099Z,4452
2017-07-12T06:38:45.700Z,4684
2017-07-12T06:39:26.286Z,4856
2017-07-12T06:40:06.864Z,5060
2017-07-12T06:40:47.441Z,5380
2017-07-12T06:41:28.005Z,5716
2017-07-12T06:42:08.572Z,6160
2017-07-12T06:42:49.154Z,6160
2017-07-12T06:43:29.734Z,6320
2017-07-12T06:44:10.345Z,6888
2017-07-12T06:44:50.915Z,7096
2017-07-12T06:45:31.511Z,7328
2017-07-12T06:46:12.096Z,7644
2017-07-12T06:46:52.689Z,8140
2017-07-12T06:47:33.281Z,8876
2017-07-12T06:48:13.874Z,9856
2017-07-12T06:48:54.784Z,11536
2017-07-12T06:49:35.357Z,17280
2017-07-12T06:50:15.928Z,19712
2017-07-12T06:50:56.494Z,34368
2017-07-12T06:51:37.084Z,20864
2017-07-12T06:52:17.687Z,17664
2017-07-12T06:52:58.342Z,16896
2017-07-12T06:53:38.922Z,15204
2017-07-12T06:54:19.487Z,15768
2017-07-12T06:55:00.387Z,17088
2017-07-12T06:55:41.024Z,23808
2017-07-12T06:56:21.605Z,38720
2017-07-12T06:57:02.210Z,29216
2017-07-12T06:57:42.784Z,42976
2017-07-12T06:58:23.358Z,73888
2017-07-12T06:59:03.950Z,37056
2017-07-12T06:59:44.637Z,29888
2017-07-12T07:00:25.266Z,49728
2017-07-12T07:01:05.845Z,29664
2017-07-12T07:01:46.451Z,30912
2017-07-12T07:02:27.031Z,23648
2017-07-12T07:03:08.514Z,30912
2017-07-12T07:03:49.099Z,32064
2017-07-12T07:04:29.665Z,51328
2017-07-12T07:05:10.252Z,40256
2017-07-12T07:05:50.842Z,62624
2017-07-12T07:06:31.447Z,84768
2017-07-12T07:07:12.250Z,66368
2017-07-12T07:07:52.846Z,89536
2017-07-12T07:08:33.394Z,79456
2017-07-12T07:09:13.971Z,52096
2017-07-12T07:09:54.538Z,49440
2017-07-12T07:10:35.104Z,88320
2017-07-12T07:11:15.778Z,87168
2017-07-12T07:11:56.395Z,84000
2017-07-12T07:12:36.996Z,78144
2017-07-12T07:13:17.583Z,84896
2017-07-12T07:13:58.200Z,86272
2017-07-12T07:14:38.780Z,71552
2017-07-12T07:15:19.359Z,41664
2017-07-12T07:16:00.015Z,33952
2017-07-12T07:16:40.724Z,42464
2017-07-12T07:17:21.355Z,35904
2017-07-12T07:18:02.149Z,23872
2017-07-12T07:18:43.031Z,36096
2017-07-12T07:19:23.616Z,15104
2017-07-12T07:20:04.222Z,25280
2017-07-12T07:20:44.824Z,15052
2017-07-12T07:21:25.409Z,29184
2017-07-12T07:22:06.068Z,43136
2017-07-12T07:22:46.659Z,25024
2017-07-12T07:23:27.229Z,15732
2017-07-12T07:24:07.863Z,16608
2017-07-12T07:24:48.447Z,17536
2017-07-12T07:25:29.015Z,18272
2017-07-12T07:26:09.601Z,20640
2017-07-12T07:26:50.328Z,44096
2017-07-12T07:27:30.896Z,35648
2017-07-12T07:28:11.475Z,79808
2017-07-12T07:28:52.094Z,24640
2017-07-12T07:29:32.666Z,22816
2017-07-12T07:30:13.285Z,58720
2017-07-12T07:30:53.873Z,29856
2017-07-12T07:31:34.475Z,77632
2017-07-12T07:32:15.059Z,36032
2017-07-12T07:32:55.651Z,72384
2017-07-12T07:33:36.247Z,38944
2017-07-12T07:34:16.905Z,38176
2017-07-12T07:34:57.475Z,32320
2017-07-12T07:35:38.097Z,34688
2017-07-12T07:36:18.670Z,45088
2017-07-12T07:36:59.252Z,41312
2017-07-12T07:37:39.887Z,58368
2017-07-12T07:38:20.548Z,81664
2017-07-12T07:39:01.140Z,32800
2017-07-12T07:39:41.727Z,56288
2017-07-12T07:40:22.314Z,74272
2017-07-12T07:41:02.988Z,72544
2017-07-12T07:41:43.516Z,83424
2017-07-12T07:42:24.104Z,47712
2017-07-12T07:43:04.688Z,26048
2017-07-12T07:43:45.286Z,52704
2017-07-12T07:44:25.905Z,76640
2017-07-12T07:45:06.495Z,62016
2017-07-12T07:45:47.085Z,56480
2017-07-12T07:46:27.669Z,67520
2017-07-12T07:47:08.264Z,70624
2017-07-12T07:47:48.857Z,41504
2017-07-12T07:48:29.450Z,44896
2017-07-12T07:49:10.044Z,44448
2017-07-12T07:49:50.618Z,55424
2017-07-12T07:50:31.221Z,72512
2017-07-12T07:51:11.811Z,64096
2017-07-12T07:51:52.378Z,79392
2017-07-12T07:52:32.964Z,57024
2017-07-12T07:53:13.551Z,47488
2017-07-12T07:53:54.149Z,53344
2017-07-12T07:54:34.726Z,50752
2017-07-12T07:55:15.327Z,51040
2017-07-12T07:55:55.940Z,26336
2017-07-12T07:56:36.520Z,33440
2017-07-12T07:57:17.101Z,51040
2017-07-12T07:57:57.676Z,63168
2017-07-12T07:58:38.275Z,40064
2017-07-12T07:59:18.879Z,38976
2017-07-12T07:59:59.468Z,35872
2017-07-12T08:00:40.036Z,58688
2017-07-12T08:01:20.624Z,64736
2017-07-12T08:02:01.196Z,57440
2017-07-12T08:02:41.779Z,78848
2017-07-12T08:03:22.360Z,78720
2017-07-12T08:04:02.929Z,89984
2017-07-12T08:04:43.513Z,87552
2017-07-12T08:05:24.096Z,84544
2017-07-12T08:06:04.678Z,69056
2017-07-12T08:06:45.280Z,46144
2017-07-12T08:07:25.895Z,29024
2017-07-12T08:08:06.449Z,22912
2017-07-12T08:08:47.032Z,21760
2017-07-12T08:09:27.710Z,24320
2017-07-12T08:10:08.308Z,19872
2017-07-12T08:10:48.875Z,17344
2017-07-12T08:11:29.448Z,17632
2017-07-12T08:12:10.061Z,18464
2017-07-12T08:12:50.645Z,19968
2017-07-12T08:13:31.238Z,20000
2017-07-12T08:14:11.819Z,17312
2017-07-12T08:14:52.438Z,15920
2017-07-12T08:15:33.041Z,15580
2017-07-12T08:16:13.606Z,15404
2017-07-12T08:16:54.221Z,15952
2017-07-12T08:17:34.877Z,14940
2017-07-12T08:18:15.460Z,14416
2017-07-12T08:18:56.037Z,15012
2017-07-12T08:19:36.624Z,14408
2017-07-12T08:20:17.248Z,14664
2017-07-12T08:20:57.839Z,15172
2017-07-12T08:21:38.424Z,14444
2017-07-12T08:22:19.008Z,13828
2017-07-12T08:22:59.624Z,13528
2017-07-12T08:23:40.206Z,13324
2017-07-12T08:24:20.799Z,13408
2017-07-12T08:25:01.367Z,13284
2017-07-12T08:25:41.942Z,15408
2017-07-12T08:26:22.504Z,18880
2017-07-12T08:27:03.072Z,20000
2017-07-12T08:27:43.640Z,18592
2017-07-12T08:28:24.225Z,17344
2017-07-12T08:29:04.833Z,13752
2017-07-12T08:29:45.422Z,12600
2017-07-12T08:30:26.020Z,12332
2017-07-12T08:31:06.586Z,10132
2017-07-12T08:31:47.155Z,10264
2017-07-12T08:32:27.724Z,12608
2017-07-12T08:33:08.316Z,11464
2017-07-12T08:33:48.908Z,10152
2017-07-12T08:34:29.488Z,13292
2017-07-12T08:35:10.081Z,13588
2017-07-12T08:35:50.657Z,11620
2017-07-12T08:36:31.265Z,11904
2017-07-12T08:37:11.844Z,10488
2017-07-12T08:37:52.420Z,10820
2017-07-12T08:38:33.011Z,11960
2017-07-12T08:39:13.582Z,12912
2017-07-12T08:39:54.147Z,12928
2017-07-12T08:40:34.713Z,11760
2017-07-12T08:41:15.293Z,11052
2017-07-12T08:41:55.849Z,9696
2017-07-12T08:42:36.493Z,10464
2017-07-12T08:43:17.072Z,12524
2017-07-12T08:43:57.763Z,12456
2017-07-12T08:44:38.364Z,12428
2017-07-12T08:45:18.933Z,13452
2017-07-12T08:45:59.535Z,12616
2017-07-12T08:46:40.153Z,11264
2017-07-12T08:47:20.755Z,11064
2017-07-12T08:48:01.344Z,10936
2017-07-12T08:48:41.939Z,11876
2017-07-12T08:49:22.508Z,13900
2017-07-12T08:50:03.080Z,15052
2017-07-12T08:50:43.651Z,14836
2017-07-12T08:51:24.226Z,13324
2017-07-12T08:52:04.831Z,12068
2017-07-12T08:52:45.404Z,10464
2017-07-12T08:53:26.001Z,9176
2017-07-12T08:54:06.544Z,7436
2017-07-12T08:54:47.117Z,8148
2017-07-12T08:55:27.701Z,7864
2017-07-12T08:56:08.275Z,8248
2017-07-12T08:56:48.837Z,9512
2017-07-12T08:57:29.430Z,10908
2017-07-12T08:58:10.020Z,10256
2017-07-12T08:58:50.595Z,9476
2017-07-12T08:59:31.180Z,9528
2017-07-12T09:00:11.774Z,9500
2017-07-12T09:00:52.354Z,9736
2017-07-12T09:01:32.937Z,9804
2017-07-12T09:02:13.555Z,9912
2017-07-12T09:02:54.134Z,9600
2017-07-12T09:03:34.697Z,9716
2017-07-12T09:04:15.276Z,9800
2017-07-12T09:04:55.847Z,9812
2017-07-12T09:05:36.423Z,9260
2017-07-12T09:06:16.992Z,8888
2017-07-12T09:06:57.562Z,9448
2017-07-12T09:07:38.134Z,10944
2017-07-12T09:08:18.713Z,12212
2017-07-12T09:08:59.287Z,13748
2017-07-12T09:09:39.864Z,13000
2017-07-12T09:10:20.438Z,13004
2017-07-12T09:11:01.010Z,13368
2017-07-12T09:11:41.600Z,12216
2017-07-12T09:12:22.178Z,10924
2017-07-12T09:13:02.768Z,10452
2017-07-12T09:13:43.350Z,12004